sensor_id;sensor_type;location;lat;lon;timestamp;P1;durP1;ratioP1;P2;durP2;ratioP2
63316;SDS011;49822;41.468;13.560;2023-02-19T00:00:10;37.33;;;17.40;;
63316;SDS011;49822;41.468;13.560;2023-02-19T00:02:39;28.60;;;14.18;;
63316;SDS011;49822;41.468;13.560;2023-02-19T00:05:10;34.95;;;17.98;;
63316;SDS011;49822;41.468;13.560;2023-02-19T00:07:38;45.85;;;17.70;;
63316;SDS011;49822;41.468;13.560;2023-02-19T00:10:06;41.70;;;18.58;;
63316;SDS011;49822;41.468;13.560;2023-02-19T00:12:33;43.15;;;19.00;;
63316;SDS011;49822;41.468;13.560;2023-02-19T00:15:02;40.60;;;17.35;;
63316;SDS011;49822;41.468;13.560;2023-02-19T00:17:30;47.92;;;21.70;;
63316;SDS011;49822;41.468;13.560;2023-02-19T00:19:59;36.08;;;17.15;;
63316;SDS011;49822;41.468;13.560;2023-02-19T00:22:26;36.28;;;17.38;;
63316;SDS011;49822;41.468;13.560;2023-02-19T00:24:55;41.67;;;18.27;;
63316;SDS011;49822;41.468;13.560;2023-02-19T00:27:23;39.15;;;18.42;;
63316;SDS011;49822;41.468;13.560;2023-02-19T00:29:51;38.50;;;17.65;;
63316;SDS011;49822;41.468;13.560;2023-02-19T00:32:19;41.78;;;17.75;;
63316;SDS011;49822;41.468;13.560;2023-02-19T00:34:48;35.63;;;18.50;;
63316;SDS011;49822;41.468;13.560;2023-02-19T00:37:16;34.50;;;16.67;;
63316;SDS011;49822;41.468;13.560;2023-02-19T00:39:44;38.67;;;18.63;;
63316;SDS011;49822;41.468;13.560;2023-02-19T00:42:11;37.72;;;18.77;;
63316;SDS011;49822;41.468;13.560;2023-02-19T00:44:39;37.97;;;18.27;;
63316;SDS011;49822;41.468;13.560;2023-02-19T00:47:07;36.03;;;16.17;;
63316;SDS011;49822;41.468;13.560;2023-02-19T00:49:37;37.35;;;17.73;;
63316;SDS011;49822;41.468;13.560;2023-02-19T00:52:04;35.30;;;18.35;;
63316;SDS011;49822;41.468;13.560;2023-02-19T00:54:32;52.47;;;22.33;;
63316;SDS011;49822;41.468;13.560;2023-02-19T00:57:00;51.50;;;21.83;;
63316;SDS011;49822;41.468;13.560;2023-02-19T00:59:27;53.17;;;21.42;;
63316;SDS011;49822;41.468;13.560;2023-02-19T01:01:56;49.13;;;21.13;;
63316;SDS011;49822;41.468;13.560;2023-02-19T01:04:24;41.90;;;18.48;;
63316;SDS011;49822;41.468;13.560;2023-02-19T01:06:52;32.28;;;16.33;;
63316;SDS011;49822;41.468;13.560;2023-02-19T01:09:19;32.55;;;17.23;;
63316;SDS011;49822;41.468;13.560;2023-02-19T01:11:46;30.27;;;15.65;;
63316;SDS011;49822;41.468;13.560;2023-02-19T01:14:16;33.25;;;15.50;;
63316;SDS011;49822;41.468;13.560;2023-02-19T01:16:43;43.72;;;18.73;;
63316;SDS011;49822;41.468;13.560;2023-02-19T01:19:11;40.83;;;19.15;;
63316;SDS011;49822;41.468;13.560;2023-02-19T01:21:42;34.55;;;16.08;;
63316;SDS011;49822;41.468;13.560;2023-02-19T01:24:09;35.83;;;16.52;;
63316;SDS011;49822;41.468;13.560;2023-02-19T01:26:37;39.70;;;19.90;;
63316;SDS011;49822;41.468;13.560;2023-02-19T01:29:05;32.80;;;17.15;;
63316;SDS011;49822;41.468;13.560;2023-02-19T01:31:32;38.42;;;16.75;;
63316;SDS011;49822;41.468;13.560;2023-02-19T01:34:03;28.92;;;15.10;;
63316;SDS011;49822;41.468;13.560;2023-02-19T01:36:32;34.05;;;17.55;;
63316;SDS011;49822;41.468;13.560;2023-02-19T01:39:03;37.25;;;19.15;;
63316;SDS011;49822;41.468;13.560;2023-02-19T01:41:34;54.20;;;31.25;;
63316;SDS011;49822;41.468;13.560;2023-02-19T01:46:44;29.20;;;15.77;;
63316;SDS011;49822;41.468;13.560;2023-02-19T01:49:19;75.80;;;28.50;;
63316;SDS011;49822;41.468;13.560;2023-02-19T01:54:56;52.47;;;22.85;;
63316;SDS011;49822;41.468;13.560;2023-02-19T01:57:30;106.93;;;36.78;;
63316;SDS011;49822;41.468;13.560;2023-02-19T02:00:05;141.07;;;40.30;;
63316;SDS011;49822;41.468;13.560;2023-02-19T02:02:40;29.45;;;16.20;;
63316;SDS011;49822;41.468;13.560;2023-02-19T02:05:13;36.47;;;17.02;;
63316;SDS011;49822;41.468;13.560;2023-02-19T02:08:05;46.30;;;18.52;;
63316;SDS011;49822;41.468;13.560;2023-02-19T02:10:52;29.50;;;15.00;;
63316;SDS011;49822;41.468;13.560;2023-02-19T02:13:21;35.03;;;18.13;;
63316;SDS011;49822;41.468;13.560;2023-02-19T02:21:41;220.27;;;48.58;;
63316;SDS011;49822;41.468;13.560;2023-02-19T02:35:44;28.42;;;16.17;;
63316;SDS011;49822;41.468;13.560;2023-02-19T02:38:17;32.50;;;16.42;;
63316;SDS011;49822;41.468;13.560;2023-02-19T02:40:48;28.45;;;14.85;;
63316;SDS011;49822;41.468;13.560;2023-02-19T02:43:18;29.43;;;15.07;;
63316;SDS011;49822;41.468;13.560;2023-02-19T02:45:46;26.95;;;14.82;;
63316;SDS011;49822;41.468;13.560;2023-02-19T02:57:06;29.13;;;15.00;;
63316;SDS011;49822;41.468;13.560;2023-02-19T02:59:42;26.75;;;14.63;;
63316;SDS011;49822;41.468;13.560;2023-02-19T03:02:16;34.38;;;16.38;;
63316;SDS011;49822;41.468;13.560;2023-02-19T03:04:53;29.35;;;14.10;;
63316;SDS011;49822;41.468;13.560;2023-02-19T03:10:38;23.13;;;12.40;;
63316;SDS011;49822;41.468;13.560;2023-02-19T03:13:20;24.33;;;13.43;;
63316;SDS011;49822;41.468;13.560;2023-02-19T03:16:39;23.85;;;13.07;;
63316;SDS011;49822;41.468;13.560;2023-02-19T03:19:40;29.75;;;14.07;;
63316;SDS011;49822;41.468;13.560;2023-02-19T03:22:16;22.83;;;12.18;;
63316;SDS011;49822;41.468;13.560;2023-02-19T03:25:00;26.10;;;13.32;;
63316;SDS011;49822;41.468;13.560;2023-02-19T03:27:54;25.70;;;12.32;;
63316;SDS011;49822;41.468;13.560;2023-02-19T03:30:27;24.25;;;12.95;;
63316;SDS011;49822;41.468;13.560;2023-02-19T03:33:13;27.60;;;13.63;;
63316;SDS011;49822;41.468;13.560;2023-02-19T03:36:06;22.90;;;12.63;;
63316;SDS011;49822;41.468;13.560;2023-02-19T03:38:54;25.38;;;13.20;;
63316;SDS011;49822;41.468;13.560;2023-02-19T03:45:10;23.92;;;12.63;;
63316;SDS011;49822;41.468;13.560;2023-02-19T03:57:54;29.45;;;13.18;;
63316;SDS011;49822;41.468;13.560;2023-02-19T04:00:37;26.02;;;12.80;;
63316;SDS011;49822;41.468;13.560;2023-02-19T04:03:16;26.58;;;14.25;;
63316;SDS011;49822;41.468;13.560;2023-02-19T04:06:21;51.13;;;22.80;;
63316;SDS011;49822;41.468;13.560;2023-02-19T04:08:54;45.90;;;20.75;;
63316;SDS011;49822;41.468;13.560;2023-02-19T04:11:25;30.30;;;14.30;;
63316;SDS011;49822;41.468;13.560;2023-02-19T04:14:02;26.30;;;14.18;;
63316;SDS011;49822;41.468;13.560;2023-02-19T04:16:43;27.73;;;14.35;;
63316;SDS011;49822;41.468;13.560;2023-02-19T04:19:17;28.38;;;15.60;;
63316;SDS011;49822;41.468;13.560;2023-02-19T04:24:24;22.25;;;11.75;;
63316;SDS011;49822;41.468;13.560;2023-02-19T04:26:58;29.33;;;16.27;;
63316;SDS011;49822;41.468;13.560;2023-02-19T04:29:26;25.23;;;13.80;;
63316;SDS011;49822;41.468;13.560;2023-02-19T04:31:54;28.08;;;14.32;;
63316;SDS011;49822;41.468;13.560;2023-02-19T04:34:21;142.68;;;35.15;;
63316;SDS011;49822;41.468;13.560;2023-02-19T04:36:49;105.63;;;33.00;;
63316;SDS011;49822;41.468;13.560;2023-02-19T04:39:16;48.15;;;21.63;;
63316;SDS011;49822;41.468;13.560;2023-02-19T04:41:43;49.00;;;22.42;;
63316;SDS011;49822;41.468;13.560;2023-02-19T04:44:12;86.70;;;31.00;;
63316;SDS011;49822;41.468;13.560;2023-02-19T04:46:40;75.00;;;27.30;;
63316;SDS011;49822;41.468;13.560;2023-02-19T04:49:09;51.70;;;23.67;;
63316;SDS011;49822;41.468;13.560;2023-02-19T04:51:37;53.65;;;25.15;;
63316;SDS011;49822;41.468;13.560;2023-02-19T04:54:05;51.15;;;25.40;;
63316;SDS011;49822;41.468;13.560;2023-02-19T04:56:33;45.75;;;24.52;;
63316;SDS011;49822;41.468;13.560;2023-02-19T04:59:00;48.78;;;24.02;;
63316;SDS011;49822;41.468;13.560;2023-02-19T05:01:29;46.30;;;24.15;;
63316;SDS011;49822;41.468;13.560;2023-02-19T05:03:57;50.40;;;25.33;;
63316;SDS011;49822;41.468;13.560;2023-02-19T05:06:25;54.97;;;27.88;;
63316;SDS011;49822;41.468;13.560;2023-02-19T05:08:53;48.17;;;25.58;;
63316;SDS011;49822;41.468;13.560;2023-02-19T05:11:21;47.35;;;25.65;;
63316;SDS011;49822;41.468;13.560;2023-02-19T05:13:49;45.53;;;23.85;;
63316;SDS011;49822;41.468;13.560;2023-02-19T05:16:17;46.47;;;23.73;;
63316;SDS011;49822;41.468;13.560;2023-02-19T05:18:44;38.40;;;19.77;;
63316;SDS011;49822;41.468;13.560;2023-02-19T05:21:12;35.42;;;18.83;;
63316;SDS011;49822;41.468;13.560;2023-02-19T05:23:40;38.28;;;20.38;;
63316;SDS011;49822;41.468;13.560;2023-02-19T05:26:16;44.75;;;25.65;;
63316;SDS011;49822;41.468;13.560;2023-02-19T05:28:45;39.50;;;20.85;;
63316;SDS011;49822;41.468;13.560;2023-02-19T05:31:14;38.30;;;21.10;;
63316;SDS011;49822;41.468;13.560;2023-02-19T05:33:42;37.30;;;20.98;;
63316;SDS011;49822;41.468;13.560;2023-02-19T05:36:13;49.03;;;25.65;;
63316;SDS011;49822;41.468;13.560;2023-02-19T05:38:41;43.55;;;22.13;;
63316;SDS011;49822;41.468;13.560;2023-02-19T05:41:10;43.25;;;23.30;;
63316;SDS011;49822;41.468;13.560;2023-02-19T05:43:46;50.00;;;26.13;;
63316;SDS011;49822;41.468;13.560;2023-02-19T05:46:19;48.25;;;27.20;;
63316;SDS011;49822;41.468;13.560;2023-02-19T05:48:50;46.85;;;23.75;;
63316;SDS011;49822;41.468;13.560;2023-02-19T05:51:20;56.85;;;32.28;;
63316;SDS011;49822;41.468;13.560;2023-02-19T05:53:50;54.85;;;29.92;;
63316;SDS011;49822;41.468;13.560;2023-02-19T05:58:52;53.08;;;31.33;;
63316;SDS011;49822;41.468;13.560;2023-02-19T06:01:22;48.63;;;27.80;;
63316;SDS011;49822;41.468;13.560;2023-02-19T06:03:52;49.15;;;27.08;;
63316;SDS011;49822;41.468;13.560;2023-02-19T06:06:23;50.03;;;27.10;;
63316;SDS011;49822;41.468;13.560;2023-02-19T06:08:51;46.05;;;22.98;;
63316;SDS011;49822;41.468;13.560;2023-02-19T06:11:21;54.85;;;30.50;;
63316;SDS011;49822;41.468;13.560;2023-02-19T06:13:51;50.60;;;26.08;;
63316;SDS011;49822;41.468;13.560;2023-02-19T06:16:18;50.15;;;26.65;;
63316;SDS011;49822;41.468;13.560;2023-02-19T06:18:49;48.13;;;23.15;;
63316;SDS011;49822;41.468;13.560;2023-02-19T06:21:16;45.13;;;22.08;;
63316;SDS011;49822;41.468;13.560;2023-02-19T06:23:46;46.28;;;23.40;;
63316;SDS011;49822;41.468;13.560;2023-02-19T06:28:42;49.17;;;25.33;;
63316;SDS011;49822;41.468;13.560;2023-02-19T06:31:12;46.22;;;24.63;;
63316;SDS011;49822;41.468;13.560;2023-02-19T06:33:40;47.22;;;27.10;;
63316;SDS011;49822;41.468;13.560;2023-02-19T06:36:10;55.05;;;26.88;;
63316;SDS011;49822;41.468;13.560;2023-02-19T06:38:39;52.95;;;27.52;;
63316;SDS011;49822;41.468;13.560;2023-02-19T06:41:08;46.70;;;26.38;;
63316;SDS011;49822;41.468;13.560;2023-02-19T06:43:49;57.35;;;27.15;;
63316;SDS011;49822;41.468;13.560;2023-02-19T06:46:40;40.08;;;22.10;;
63316;SDS011;49822;41.468;13.560;2023-02-19T06:49:07;50.00;;;25.85;;
63316;SDS011;49822;41.468;13.560;2023-02-19T06:51:35;63.42;;;30.90;;
63316;SDS011;49822;41.468;13.560;2023-02-19T06:54:02;51.72;;;29.20;;
63316;SDS011;49822;41.468;13.560;2023-02-19T06:56:31;51.25;;;30.50;;
63316;SDS011;49822;41.468;13.560;2023-02-19T06:59:06;57.15;;;28.08;;
63316;SDS011;49822;41.468;13.560;2023-02-19T07:01:39;56.80;;;30.67;;
63316;SDS011;49822;41.468;13.560;2023-02-19T07:04:07;53.15;;;27.67;;
63316;SDS011;49822;41.468;13.560;2023-02-19T07:06:35;53.38;;;27.85;;
63316;SDS011;49822;41.468;13.560;2023-02-19T07:09:05;56.20;;;30.88;;
63316;SDS011;49822;41.468;13.560;2023-02-19T07:11:34;49.45;;;28.52;;
63316;SDS011;49822;41.468;13.560;2023-02-19T07:14:06;50.60;;;27.88;;
63316;SDS011;49822;41.468;13.560;2023-02-19T07:16:36;55.28;;;28.60;;
63316;SDS011;49822;41.468;13.560;2023-02-19T07:19:05;56.55;;;31.48;;
63316;SDS011;49822;41.468;13.560;2023-02-19T07:21:32;55.85;;;29.25;;
63316;SDS011;49822;41.468;13.560;2023-02-19T07:24:04;57.33;;;29.50;;
63316;SDS011;49822;41.468;13.560;2023-02-19T07:26:32;57.05;;;28.98;;
63316;SDS011;49822;41.468;13.560;2023-02-19T07:28:59;68.15;;;33.47;;
63316;SDS011;49822;41.468;13.560;2023-02-19T07:31:28;60.42;;;30.70;;
63316;SDS011;49822;41.468;13.560;2023-02-19T07:33:55;65.50;;;31.90;;
63316;SDS011;49822;41.468;13.560;2023-02-19T07:36:23;70.10;;;34.75;;
63316;SDS011;49822;41.468;13.560;2023-02-19T07:38:55;98.45;;;46.17;;
63316;SDS011;49822;41.468;13.560;2023-02-19T07:41:25;65.88;;;35.33;;
63316;SDS011;49822;41.468;13.560;2023-02-19T07:43:55;58.65;;;30.98;;
63316;SDS011;49822;41.468;13.560;2023-02-19T07:46:23;61.03;;;31.83;;
63316;SDS011;49822;41.468;13.560;2023-02-19T07:48:51;54.15;;;27.45;;
63316;SDS011;49822;41.468;13.560;2023-02-19T07:51:20;60.17;;;28.83;;
63316;SDS011;49822;41.468;13.560;2023-02-19T07:53:51;54.13;;;29.02;;
63316;SDS011;49822;41.468;13.560;2023-02-19T07:56:19;54.45;;;28.23;;
63316;SDS011;49822;41.468;13.560;2023-02-19T07:58:49;51.88;;;28.05;;
63316;SDS011;49822;41.468;13.560;2023-02-19T08:01:17;47.60;;;26.63;;
63316;SDS011;49822;41.468;13.560;2023-02-19T08:04:09;51.67;;;24.50;;
63316;SDS011;49822;41.468;13.560;2023-02-19T08:06:39;40.63;;;24.23;;
63316;SDS011;49822;41.468;13.560;2023-02-19T08:09:08;47.13;;;24.85;;
63316;SDS011;49822;41.468;13.560;2023-02-19T08:11:36;42.47;;;21.85;;
63316;SDS011;49822;41.468;13.560;2023-02-19T08:14:24;45.75;;;24.80;;
63316;SDS011;49822;41.468;13.560;2023-02-19T08:16:53;94.40;;;54.30;;
63316;SDS011;49822;41.468;13.560;2023-02-19T08:19:21;78.97;;;46.17;;
63316;SDS011;49822;41.468;13.560;2023-02-19T08:21:51;55.20;;;31.35;;
63316;SDS011;49822;41.468;13.560;2023-02-19T08:24:21;52.33;;;28.88;;
63316;SDS011;49822;41.468;13.560;2023-02-19T08:26:51;49.33;;;26.75;;
63316;SDS011;49822;41.468;13.560;2023-02-19T08:29:19;49.30;;;27.88;;
63316;SDS011;49822;41.468;13.560;2023-02-19T08:31:46;49.47;;;26.50;;
63316;SDS011;49822;41.468;13.560;2023-02-19T08:34:15;52.17;;;30.30;;
63316;SDS011;49822;41.468;13.560;2023-02-19T08:36:42;69.15;;;30.65;;
63316;SDS011;49822;41.468;13.560;2023-02-19T08:39:10;62.42;;;30.88;;
63316;SDS011;49822;41.468;13.560;2023-02-19T08:41:37;56.58;;;29.15;;
63316;SDS011;49822;41.468;13.560;2023-02-19T08:44:06;55.65;;;28.77;;
63316;SDS011;49822;41.468;13.560;2023-02-19T08:46:33;52.28;;;28.13;;
63316;SDS011;49822;41.468;13.560;2023-02-19T08:49:02;154.60;;;50.42;;
63316;SDS011;49822;41.468;13.560;2023-02-19T08:51:30;52.20;;;29.60;;
63316;SDS011;49822;41.468;13.560;2023-02-19T08:54:00;57.25;;;29.85;;
63316;SDS011;49822;41.468;13.560;2023-02-19T08:56:30;58.10;;;29.52;;
63316;SDS011;49822;41.468;13.560;2023-02-19T08:58:58;66.55;;;31.00;;
63316;SDS011;49822;41.468;13.560;2023-02-19T09:01:25;58.78;;;30.08;;
63316;SDS011;49822;41.468;13.560;2023-02-19T09:03:54;60.22;;;30.77;;
63316;SDS011;49822;41.468;13.560;2023-02-19T09:06:22;67.57;;;29.48;;
63316;SDS011;49822;41.468;13.560;2023-02-19T09:09:05;74.97;;;34.95;;
63316;SDS011;49822;41.468;13.560;2023-02-19T09:11:51;76.03;;;36.17;;
63316;SDS011;49822;41.468;13.560;2023-02-19T09:14:23;71.95;;;35.40;;
63316;SDS011;49822;41.468;13.560;2023-02-19T09:16:58;66.68;;;32.25;;
63316;SDS011;49822;41.468;13.560;2023-02-19T09:19:28;52.92;;;28.85;;
63316;SDS011;49822;41.468;13.560;2023-02-19T09:21:56;72.68;;;32.47;;
63316;SDS011;49822;41.468;13.560;2023-02-19T09:24:24;62.22;;;33.30;;
63316;SDS011;49822;41.468;13.560;2023-02-19T09:26:52;56.78;;;29.30;;
63316;SDS011;49822;41.468;13.560;2023-02-19T09:29:21;51.97;;;28.73;;
63316;SDS011;49822;41.468;13.560;2023-02-19T09:34:22;78.13;;;33.75;;
63316;SDS011;49822;41.468;13.560;2023-02-19T09:36:52;72.78;;;32.17;;
63316;SDS011;49822;41.468;13.560;2023-02-19T09:39:22;77.32;;;31.70;;
63316;SDS011;49822;41.468;13.560;2023-02-19T09:41:57;101.32;;;37.42;;
63316;SDS011;49822;41.468;13.560;2023-02-19T09:44:35;97.07;;;36.38;;
63316;SDS011;49822;41.468;13.560;2023-02-19T09:47:12;91.00;;;34.97;;
63316;SDS011;49822;41.468;13.560;2023-02-19T09:49:47;67.35;;;26.52;;
63316;SDS011;49822;41.468;13.560;2023-02-19T09:58:06;48.42;;;23.60;;
63316;SDS011;49822;41.468;13.560;2023-02-19T10:00:42;58.38;;;27.80;;
63316;SDS011;49822;41.468;13.560;2023-02-19T10:03:21;65.95;;;32.30;;
63316;SDS011;49822;41.468;13.560;2023-02-19T10:05:58;62.35;;;32.35;;
63316;SDS011;49822;41.468;13.560;2023-02-19T10:08:29;67.38;;;35.15;;
63316;SDS011;49822;41.468;13.560;2023-02-19T10:11:01;55.45;;;28.25;;
63316;SDS011;49822;41.468;13.560;2023-02-19T10:16:03;49.05;;;25.45;;
63316;SDS011;49822;41.468;13.560;2023-02-19T10:18:37;76.45;;;40.83;;
63316;SDS011;49822;41.468;13.560;2023-02-19T10:21:09;43.97;;;25.77;;
63316;SDS011;49822;41.468;13.560;2023-02-19T10:23:42;47.53;;;23.83;;
63316;SDS011;49822;41.468;13.560;2023-02-19T10:26:23;79.32;;;41.78;;
63316;SDS011;49822;41.468;13.560;2023-02-19T10:28:50;48.65;;;27.20;;
63316;SDS011;49822;41.468;13.560;2023-02-19T10:31:22;45.60;;;22.95;;
63316;SDS011;49822;41.468;13.560;2023-02-19T10:33:56;47.67;;;25.05;;
63316;SDS011;49822;41.468;13.560;2023-02-19T10:39:06;59.95;;;27.77;;
63316;SDS011;49822;41.468;13.560;2023-02-19T10:41:47;191.43;;;69.15;;
63316;SDS011;49822;41.468;13.560;2023-02-19T10:44:20;78.93;;;39.15;;
63316;SDS011;49822;41.468;13.560;2023-02-19T10:46:55;66.68;;;32.00;;
63316;SDS011;49822;41.468;13.560;2023-02-19T10:51:58;57.95;;;26.92;;
63316;SDS011;49822;41.468;13.560;2023-02-19T10:54:32;51.60;;;24.60;;
63316;SDS011;49822;41.468;13.560;2023-02-19T11:02:45;41.80;;;22.13;;
63316;SDS011;49822;41.468;13.560;2023-02-19T11:05:17;42.83;;;20.48;;
63316;SDS011;49822;41.468;13.560;2023-02-19T11:07:49;49.90;;;22.30;;
63316;SDS011;49822;41.468;13.560;2023-02-19T11:10:35;37.78;;;20.33;;
63316;SDS011;49822;41.468;13.560;2023-02-19T11:13:06;28.45;;;13.40;;
63316;SDS011;49822;41.468;13.560;2023-02-19T11:15:41;14.43;;;8.07;;
63316;SDS011;49822;41.468;13.560;2023-02-19T11:18:29;23.02;;;10.02;;
63316;SDS011;49822;41.468;13.560;2023-02-19T11:23:42;19.58;;;9.32;;
63316;SDS011;49822;41.468;13.560;2023-02-19T11:26:17;20.08;;;10.07;;
63316;SDS011;49822;41.468;13.560;2023-02-19T11:28:57;25.40;;;9.60;;
63316;SDS011;49822;41.468;13.560;2023-02-19T11:31:30;16.00;;;8.55;;
63316;SDS011;49822;41.468;13.560;2023-02-19T11:34:00;19.60;;;9.45;;
63316;SDS011;49822;41.468;13.560;2023-02-19T11:36:33;21.50;;;10.20;;
63316;SDS011;49822;41.468;13.560;2023-02-19T11:53:31;20.65;;;9.25;;
63316;SDS011;49822;41.468;13.560;2023-02-19T11:58:56;27.95;;;13.73;;
63316;SDS011;49822;41.468;13.560;2023-02-19T12:13:46;24.50;;;12.52;;
63316;SDS011;49822;41.468;13.560;2023-02-19T12:22:39;19.75;;;11.88;;
63316;SDS011;49822;41.468;13.560;2023-02-19T12:33:51;27.83;;;14.35;;
63316;SDS011;49822;41.468;13.560;2023-02-19T12:39:20;21.15;;;11.80;;
63316;SDS011;49822;41.468;13.560;2023-02-19T12:44:58;18.65;;;12.30;;
63316;SDS011;49822;41.468;13.560;2023-02-19T12:47:36;24.85;;;10.52;;
63316;SDS011;49822;41.468;13.560;2023-02-19T12:50:24;21.55;;;11.02;;
63316;SDS011;49822;41.468;13.560;2023-02-19T12:52:58;21.98;;;11.73;;
63316;SDS011;49822;41.468;13.560;2023-02-19T12:55:47;17.90;;;9.70;;
63316;SDS011;49822;41.468;13.560;2023-02-19T12:58:18;23.90;;;12.07;;
63316;SDS011;49822;41.468;13.560;2023-02-19T13:00:55;19.98;;;10.45;;
63316;SDS011;49822;41.468;13.560;2023-02-19T13:03:31;27.85;;;12.15;;
63316;SDS011;49822;41.468;13.560;2023-02-19T13:09:17;31.00;;;13.07;;
63316;SDS011;49822;41.468;13.560;2023-02-19T13:11:55;22.52;;;10.43;;
63316;SDS011;49822;41.468;13.560;2023-02-19T13:17:00;19.73;;;10.15;;
63316;SDS011;49822;41.468;13.560;2023-02-19T13:19:35;21.73;;;10.82;;
63316;SDS011;49822;41.468;13.560;2023-02-19T13:22:07;16.88;;;8.77;;
63316;SDS011;49822;41.468;13.560;2023-02-19T13:25:10;19.08;;;10.38;;
63316;SDS011;49822;41.468;13.560;2023-02-19T13:28:00;19.67;;;8.93;;
63316;SDS011;49822;41.468;13.560;2023-02-19T13:30:39;20.63;;;10.15;;
63316;SDS011;49822;41.468;13.560;2023-02-19T13:38:39;18.52;;;9.02;;
63316;SDS011;49822;41.468;13.560;2023-02-19T13:41:18;18.55;;;8.52;;
63316;SDS011;49822;41.468;13.560;2023-02-19T13:43:58;18.45;;;10.00;;
63316;SDS011;49822;41.468;13.560;2023-02-19T13:46:35;16.05;;;10.23;;
63316;SDS011;49822;41.468;13.560;2023-02-19T13:51:52;22.05;;;10.15;;
63316;SDS011;49822;41.468;13.560;2023-02-19T13:54:40;23.35;;;11.68;;
63316;SDS011;49822;41.468;13.560;2023-02-19T13:59:51;26.67;;;12.35;;
63316;SDS011;49822;41.468;13.560;2023-02-19T14:09:53;16.00;;;8.45;;
63316;SDS011;49822;41.468;13.560;2023-02-19T14:12:21;18.70;;;10.25;;
63316;SDS011;49822;41.468;13.560;2023-02-19T14:14:57;17.75;;;9.30;;
63316;SDS011;49822;41.468;13.560;2023-02-19T14:17:54;22.77;;;8.70;;
63316;SDS011;49822;41.468;13.560;2023-02-19T14:23:13;22.08;;;11.27;;
63316;SDS011;49822;41.468;13.560;2023-02-19T14:25:52;17.70;;;10.43;;
63316;SDS011;49822;41.468;13.560;2023-02-19T14:28:27;20.38;;;10.07;;
63316;SDS011;49822;41.468;13.560;2023-02-19T14:31:01;24.15;;;10.55;;
63316;SDS011;49822;41.468;13.560;2023-02-19T14:33:49;16.25;;;8.45;;
63316;SDS011;49822;41.468;13.560;2023-02-19T14:40:52;16.55;;;8.80;;
63316;SDS011;49822;41.468;13.560;2023-02-19T14:43:22;21.88;;;9.45;;
63316;SDS011;49822;41.468;13.560;2023-02-19T14:45:53;22.92;;;11.27;;
63316;SDS011;49822;41.468;13.560;2023-02-19T14:48:32;18.02;;;8.85;;
63316;SDS011;49822;41.468;13.560;2023-02-19T14:51:13;20.67;;;9.75;;
63316;SDS011;49822;41.468;13.560;2023-02-19T14:53:56;18.20;;;9.73;;
63316;SDS011;49822;41.468;13.560;2023-02-19T14:56:27;15.82;;;9.07;;
63316;SDS011;49822;41.468;13.560;2023-02-19T14:59:07;21.42;;;10.20;;
63316;SDS011;49822;41.468;13.560;2023-02-19T15:01:35;14.10;;;8.63;;
63316;SDS011;49822;41.468;13.560;2023-02-19T15:04:04;18.58;;;8.73;;
63316;SDS011;49822;41.468;13.560;2023-02-19T15:06:35;18.88;;;9.32;;
63316;SDS011;49822;41.468;13.560;2023-02-19T15:09:04;22.98;;;9.00;;
63316;SDS011;49822;41.468;13.560;2023-02-19T15:11:33;19.73;;;10.47;;
63316;SDS011;49822;41.468;13.560;2023-02-19T15:14:02;19.58;;;10.27;;
63316;SDS011;49822;41.468;13.560;2023-02-19T15:19:04;21.95;;;11.60;;
63316;SDS011;49822;41.468;13.560;2023-02-19T15:21:33;15.98;;;8.40;;
63316;SDS011;49822;41.468;13.560;2023-02-19T15:24:04;21.58;;;10.07;;
63316;SDS011;49822;41.468;13.560;2023-02-19T15:29:11;15.98;;;9.25;;
63316;SDS011;49822;41.468;13.560;2023-02-19T15:31:44;18.98;;;9.32;;
63316;SDS011;49822;41.468;13.560;2023-02-19T15:34:34;23.15;;;12.90;;
63316;SDS011;49822;41.468;13.560;2023-02-19T15:37:04;18.20;;;10.20;;
63316;SDS011;49822;41.468;13.560;2023-02-19T15:39:35;20.63;;;10.70;;
63316;SDS011;49822;41.468;13.560;2023-02-19T15:42:03;20.55;;;10.50;;
63316;SDS011;49822;41.468;13.560;2023-02-19T15:44:35;19.70;;;9.23;;
63316;SDS011;49822;41.468;13.560;2023-02-19T15:50:07;18.08;;;9.35;;
63316;SDS011;49822;41.468;13.560;2023-02-19T15:57:46;13.25;;;7.68;;
63316;SDS011;49822;41.468;13.560;2023-02-19T16:00:23;19.27;;;8.45;;
63316;SDS011;49822;41.468;13.560;2023-02-19T16:03:02;17.58;;;8.98;;
63316;SDS011;49822;41.468;13.560;2023-02-19T16:05:32;28.83;;;9.80;;
63316;SDS011;49822;41.468;13.560;2023-02-19T16:08:17;18.55;;;9.43;;
63316;SDS011;49822;41.468;13.560;2023-02-19T16:10:54;22.20;;;10.37;;
63316;SDS011;49822;41.468;13.560;2023-02-19T16:13:24;21.80;;;10.57;;
63316;SDS011;49822;41.468;13.560;2023-02-19T16:19:02;18.52;;;10.40;;
63316;SDS011;49822;41.468;13.560;2023-02-19T16:21:29;17.23;;;9.18;;
63316;SDS011;49822;41.468;13.560;2023-02-19T16:24:02;25.17;;;10.88;;
63316;SDS011;49822;41.468;13.560;2023-02-19T16:26:47;20.15;;;10.93;;
63316;SDS011;49822;41.468;13.560;2023-02-19T16:29:19;23.75;;;10.75;;
63316;SDS011;49822;41.468;13.560;2023-02-19T16:31:55;18.27;;;9.63;;
63316;SDS011;49822;41.468;13.560;2023-02-19T16:34:31;19.50;;;10.90;;
63316;SDS011;49822;41.468;13.560;2023-02-19T16:40:23;22.98;;;10.57;;
63316;SDS011;49822;41.468;13.560;2023-02-19T16:47:49;17.00;;;9.05;;
63316;SDS011;49822;41.468;13.560;2023-02-19T16:50:18;21.90;;;10.23;;
63316;SDS011;49822;41.468;13.560;2023-02-19T16:55:24;22.02;;;12.43;;
63316;SDS011;49822;41.468;13.560;2023-02-19T16:57:53;19.77;;;11.10;;
63316;SDS011;49822;41.468;13.560;2023-02-19T17:00:25;21.70;;;10.45;;
63316;SDS011;49822;41.468;13.560;2023-02-19T17:02:58;20.65;;;10.52;;
63316;SDS011;49822;41.468;13.560;2023-02-19T17:05:36;19.98;;;11.00;;
63316;SDS011;49822;41.468;13.560;2023-02-19T17:08:41;23.35;;;10.40;;
63316;SDS011;49822;41.468;13.560;2023-02-19T17:11:13;17.20;;;9.57;;
63316;SDS011;49822;41.468;13.560;2023-02-19T17:13:43;15.98;;;9.38;;
63316;SDS011;49822;41.468;13.560;2023-02-19T17:16:16;15.55;;;8.70;;
63316;SDS011;49822;41.468;13.560;2023-02-19T17:18:49;26.83;;;10.80;;
63316;SDS011;49822;41.468;13.560;2023-02-19T17:21:22;18.50;;;9.75;;
63316;SDS011;49822;41.468;13.560;2023-02-19T17:23:51;26.23;;;12.02;;
63316;SDS011;49822;41.468;13.560;2023-02-19T17:26:29;28.48;;;12.38;;
63316;SDS011;49822;41.468;13.560;2023-02-19T17:28:58;20.65;;;9.88;;
63316;SDS011;49822;41.468;13.560;2023-02-19T17:31:27;24.15;;;11.88;;
63316;SDS011;49822;41.468;13.560;2023-02-19T17:33:55;23.77;;;10.93;;
63316;SDS011;49822;41.468;13.560;2023-02-19T17:36:26;21.38;;;10.48;;
63316;SDS011;49822;41.468;13.560;2023-02-19T17:38:58;21.52;;;9.82;;
63316;SDS011;49822;41.468;13.560;2023-02-19T17:41:27;22.52;;;11.50;;
63316;SDS011;49822;41.468;13.560;2023-02-19T17:43:55;20.80;;;11.55;;
63316;SDS011;49822;41.468;13.560;2023-02-19T17:46:24;24.90;;;12.50;;
63316;SDS011;49822;41.468;13.560;2023-02-19T17:48:53;24.00;;;12.07;;
63316;SDS011;49822;41.468;13.560;2023-02-19T17:51:28;21.15;;;10.95;;